Time;durP1;ratioP1;P1;durP2;ratioP2;P2;SDS_P1;SDS_P2;PMS_P1;PMS_P2;Temp;Humidity;BMP_temperature;BMP_pressure;BME280_temperature;BME280_humidity;BME280_pressure;Samples;Min_cycle;Max_cycle;Signal;HPM_P1;HPM_P2
2021/06/09 00:00:16;;;;;;;7.67;6.97;;;;;;;16.07;56.79;100391.78;153940;1101;103189;-75
2021/06/09 00:03:21;;;;;;;7.00;6.30;;;;;;;16.03;57.22;100396.72;153992;1101;103133;-76
2021/06/09 00:06:27;;;;;;;7.50;6.80;;;;;;;16.01;57.38;100393.38;153976;1101;103141;-76
2021/06/09 00:09:31;;;;;;;7.50;6.23;;;;;;;15.98;57.26;100393.73;154052;1096;103165;-75
2021/06/09 00:12:36;;;;;;;8.35;5.70;;;;;;;15.98;57.12;100390.22;153996;1101;103133;-78
2021/06/09 00:15:41;;;;;;;7.63;6.20;;;;;;;15.95;57.22;100390.58;153931;1095;103106;-78
2021/06/09 00:18:46;;;;;;;7.00;6.25;;;;;;;15.93;56.82;100385.38;154016;1095;103131;-78
2021/06/09 00:21:51;;;;;;;7.15;6.45;;;;;;;15.96;57.05;100387.70;154002;1096;103259;-79
2021/06/09 00:24:56;;;;;;;8.63;6.53;;;;;;;15.95;57.19;100383.33;153975;1101;103211;-78
2021/06/09 00:28:00;;;;;;;8.80;6.93;;;;;;;15.93;57.38;100385.38;153950;1101;103107;-78
2021/06/09 00:31:07;;;;;;;7.45;6.75;;;;;;;15.87;57.30;100383.42;153931;1095;103120;-78
2021/06/09 00:34:12;;;;;;;7.35;6.65;;;;;;;15.83;57.41;100387.52;153988;1101;103097;-77
2021/06/09 00:37:17;;;;;;;8.70;7.23;;;;;;;15.78;57.25;100392.59;153995;1095;103254;-78
2021/06/09 00:40:22;;;;;;;8.20;7.40;;;;;;;15.75;57.62;100387.61;154022;1101;103192;-78
2021/06/09 00:43:28;;;;;;;8.13;6.98;;;;;;;15.66;57.42;100387.63;153997;1101;103249;-78
2021/06/09 00:46:37;;;;;;;7.63;6.80;;;;;;;15.61;57.36;100386.53;153959;1101;103228;-77
2021/06/09 00:49:42;;;;;;;7.55;6.50;;;;;;;15.55;57.58;100380.03;153984;1097;103199;-78
2021/06/09 00:52:47;;;;;;;7.60;6.90;;;;;;;15.51;57.58;100387.63;153959;1096;103528;-80
2021/06/09 00:55:52;;;;;;;8.43;7.63;;;;;;;15.45;57.97;100380.29;153989;1101;103119;-77
2021/06/09 00:58:56;;;;;;;8.55;7.50;;;;;;;15.40;57.79;100381.85;153949;1095;103564;-77
2021/06/09 01:02:01;;;;;;;9.03;7.78;;;;;;;15.35;57.76;100376.17;153920;1101;103212;-77
2021/06/09 01:05:08;;;;;;;8.05;7.25;;;;;;;15.28;57.83;100378.73;153980;1101;103196;-77
2021/06/09 01:08:16;;;;;;;9.05;8.15;;;;;;;15.23;58.14;100379.28;153944;1101;103293;-78
2021/06/09 01:11:22;;;;;;;8.30;7.10;;;;;;;15.18;57.95;100373.60;153941;1101;103123;-76
2021/06/09 01:14:27;;;;;;;7.63;6.80;;;;;;;15.10;58.18;100379.05;153956;1101;103123;-79
2021/06/09 01:17:32;;;;;;;11.10;7.28;;;;;;;15.10;58.42;100373.67;153932;1101;103223;-78
2021/06/09 01:20:37;;;;;;;8.23;6.63;;;;;;;15.08;58.14;100370.33;153943;1101;103155;-79
2021/06/09 01:23:42;;;;;;;8.58;7.75;;;;;;;15.07;58.30;100374.88;153961;1101;103617;-78
2021/06/09 01:26:47;;;;;;;8.80;7.70;;;;;;;15.09;58.27;100372.84;153972;1101;103572;-76
2021/06/09 01:29:52;;;;;;;8.75;7.85;;;;;;;15.14;58.72;100379.53;153985;1101;103145;-74
2021/06/09 01:32:57;;;;;;;9.13;8.23;;;;;;;15.13;58.29;100381.39;153944;1095;103196;-75
2021/06/09 01:36:01;;;;;;;9.28;8.28;;;;;;;15.11;58.42;100380.73;153951;1101;103146;-80
2021/06/09 01:39:12;;;;;;;10.00;8.00;;;;;;;15.10;58.28;100387.94;153963;1095;103327;-77
2021/06/09 01:42:22;;;;;;;9.35;8.25;;;;;;;15.03;58.49;100392.39;153989;1101;103202;-78
2021/06/09 01:45:30;;;;;;;9.90;8.90;;;;;;;14.98;58.46;100391.25;153946;1096;103100;-74
2021/06/09 01:48:34;;;;;;;9.77;8.37;;;;;;;14.90;58.40;100390.28;153907;1097;103152;-75
2021/06/09 01:51:39;;;;;;;9.60;8.40;;;;;;;14.85;58.61;100392.66;153949;1101;103493;-75
2021/06/09 01:54:44;;;;;;;9.00;8.10;;;;;;;14.79;58.51;100385.30;153966;1096;103305;-76
2021/06/09 01:57:49;;;;;;;9.80;8.80;;;;;;;14.76;58.53;100388.37;153981;1101;103203;-77
2021/06/09 02:00:54;;;;;;;10.10;8.95;;;;;;;14.72;58.59;100387.02;153948;1096;103164;-77
2021/06/09 02:03:59;;;;;;;9.63;8.63;;;;;;;14.64;58.68;100400.50;153971;1101;103492;-77
2021/06/09 02:07:04;;;;;;;9.65;8.65;;;;;;;14.59;58.72;100392.98;154047;1095;103050;-79
2021/06/09 02:10:13;;;;;;;9.43;8.43;;;;;;;14.53;58.90;100393.66;154237;1101;103200;-78
2021/06/09 02:13:20;;;;;;;9.47;8.47;;;;;;;14.51;58.74;100399.20;154106;1096;103176;-79
2021/06/09 02:16:25;;;;;;;9.10;8.20;;;;;;;14.49;58.86;100393.17;153993;1096;103154;-78
2021/06/09 02:19:30;;;;;;;10.43;9.07;;;;;;;14.46;58.73;100390.83;153970;1101;103115;-79
2021/06/09 02:22:37;;;;;;;11.50;8.63;;;;;;;14.44;58.92;100394.70;154006;1101;103195;-77
2021/06/09 02:25:46;;;;;;;9.10;7.78;;;;;;;14.41;58.88;100401.24;153982;1096;103199;-76
2021/06/09 02:28:50;;;;;;;9.80;8.73;;;;;;;14.42;58.87;100391.37;153999;1097;103123;-78
2021/06/09 02:31:55;;;;;;;9.08;8.18;;;;;;;14.45;58.76;100396.36;153931;1101;103151;-77
2021/06/09 02:35:00;;;;;;;10.03;9.03;;;;;;;14.49;58.97;100395.86;153959;1095;103246;-77
2021/06/09 02:38:06;;;;;;;11.40;9.45;;;;;;;14.49;59.12;100393.17;153998;1094;103221;-77
2021/06/09 02:41:12;;;;;;;9.73;8.80;;;;;;;14.51;58.79;100388.46;153997;1093;103285;-77
2021/06/09 02:44:18;;;;;;;10.10;8.90;;;;;;;14.52;59.25;100392.80;154062;1101;103206;-80
2021/06/09 02:47:22;;;;;;;11.58;9.15;;;;;;;14.54;58.88;100385.41;154047;1093;103129;-71
2021/06/09 02:50:27;;;;;;;9.88;8.88;;;;;;;14.55;59.02;100391.64;154007;1097;103165;-75
2021/06/09 02:53:38;;;;;;;11.58;8.83;;;;;;;14.57;59.08;100384.27;153958;1095;103146;-74
2021/06/09 02:56:52;;;;;;;9.80;8.90;;;;;;;14.61;58.91;100384.77;154028;1093;103103;-73
2021/06/09 03:00:07;;;;;;;15.17;8.63;;;;;;;14.62;59.17;100389.93;154047;1097;103202;-75
2021/06/09 03:03:18;;;;;;;13.37;9.57;;;;;;;14.65;58.88;100388.77;154422;1101;103191;-72
2021/06/09 03:06:28;;;;;;;13.55;9.50;;;;;;;14.63;59.06;100393.48;154084;1093;103114;-73
2021/06/09 03:09:37;;;;;;;12.40;9.23;;;;;;;14.67;59.15;100389.42;154146;1094;103187;-74
2021/06/09 03:12:46;;;;;;;14.83;8.90;;;;;;;14.80;58.91;100383.45;154045;1101;103266;-73
2021/06/09 03:15:59;;;;;;;10.30;9.20;;;;;;;14.95;59.02;100381.67;154009;1101;103094;-74
2021/06/09 03:19:09;;;;;;;11.73;9.85;;;;;;;15.14;58.99;100380.36;154084;1101;103218;-76
2021/06/09 03:22:25;;;;;;;8.87;7.97;;;;;;;15.41;58.74;100378.13;154113;1101;103160;-75
2021/06/09 03:25:39;;;;;;;8.30;7.50;;;;;;;15.69;58.90;100375.69;154123;1101;103022;-74
2021/06/09 03:28:54;;;;;;;12.63;8.78;;;;;;;16.03;58.93;100385.09;154128;1101;103298;-76
2021/06/09 03:32:02;;;;;;;11.57;8.13;;;;;;;16.40;58.77;100381.47;153977;1101;103201;-73
2021/06/09 03:35:15;;;;;;;8.90;8.10;;;;;;;16.73;58.55;100381.02;153902;1101;103218;-73
2021/06/09 03:38:28;;;;;;;9.35;8.45;;;;;;;17.00;58.14;100378.64;153916;1101;103238;-74
2021/06/09 03:41:38;;;;;;;8.78;7.88;;;;;;;17.22;58.09;100368.67;153984;1101;103135;-74
2021/06/09 03:44:46;;;;;;;8.47;7.63;;;;;;;17.48;58.03;100365.38;153955;1101;103267;-73
2021/06/09 03:47:52;;;;;;;9.00;8.10;;;;;;;17.77;58.04;100377.00;153943;1094;103218;-74
2021/06/09 03:51:00;;;;;;;9.70;8.50;;;;;;;17.96;57.73;100376.32;153942;1101;103124;-74
2021/06/09 03:54:05;;;;;;;8.93;8.13;;;;;;;18.18;57.79;100378.93;153942;1096;103201;-73
2021/06/09 03:57:11;;;;;;;8.80;7.90;;;;;;;18.37;57.76;100378.19;153976;1096;103048;-74
2021/06/09 04:00:18;;;;;;;8.90;8.10;;;;;;;18.56;57.36;100381.18;154025;1096;103147;-73
2021/06/09 04:03:24;;;;;;;8.58;7.78;;;;;;;18.76;57.28;100382.05;154069;1101;103736;-74
2021/06/09 04:06:30;;;;;;;9.80;8.80;;;;;;;18.94;57.24;100383.41;153957;1097;103195;-74
2021/06/09 04:09:35;;;;;;;9.00;8.20;;;;;;;19.10;57.34;100383.00;153943;1096;103115;-74
2021/06/09 04:12:41;;;;;;;9.37;8.13;;;;;;;19.28;57.30;100378.86;153994;1097;103122;-74
2021/06/09 04:15:50;;;;;;;8.53;7.80;;;;;;;19.47;57.38;100382.61;153922;1101;103214;-74
2021/06/09 04:18:56;;;;;;;9.93;8.93;;;;;;;19.67;57.46;100380.73;153986;1101;103158;-74
2021/06/09 04:22:04;;;;;;;11.67;9.70;;;;;;;19.87;57.28;100391.55;153941;1101;103133;-74
2021/06/09 04:25:11;;;;;;;10.55;9.45;;;;;;;19.98;57.10;100392.80;153936;1101;103187;-74
2021/06/09 04:28:19;;;;;;;10.43;9.30;;;;;;;19.87;56.70;100394.27;154033;1095;103218;-74
2021/06/09 04:31:24;;;;;;;9.88;8.88;;;;;;;19.72;56.40;100396.37;153951;1095;103490;-75
2021/06/09 04:34:44;;;;;;;11.87;9.40;;;;;;;19.53;56.90;100404.25;153972;1097;103128;-75
2021/06/09 04:37:49;;;;;;;10.38;9.30;;;;;;;19.46;57.06;100403.44;153929;1101;103145;-74
2021/06/09 04:40:54;;;;;;;12.03;10.00;;;;;;;19.43;57.05;100398.42;153915;1096;103188;-74
2021/06/09 04:43:59;;;;;;;10.00;8.93;;;;;;;19.50;57.32;100393.85;153955;1101;103143;-74
2021/06/09 04:47:04;;;;;;;11.23;10.13;;;;;;;19.62;57.31;100405.70;153928;1101;103304;-75
2021/06/09 04:50:11;;;;;;;11.23;9.97;;;;;;;19.68;57.17;100411.34;153948;1097;103257;-74
2021/06/09 04:53:16;;;;;;;11.80;10.60;;;;;;;19.61;56.56;100408.62;153943;1101;103621;-75
2021/06/09 04:56:21;;;;;;;11.63;10.50;;;;;;;19.51;56.98;100400.09;153966;1095;103195;-76
2021/06/09 04:59:26;;;;;;;12.13;11.00;;;;;;;19.49;57.15;100397.59;153964;1101;103195;-74
2021/06/09 05:02:30;;;;;;;11.77;10.57;;;;;;;19.61;57.54;100406.77;153939;1096;103282;-74
2021/06/09 05:05:36;;;;;;;12.20;11.00;;;;;;;19.67;57.10;100405.09;153917;1101;103547;-75
2021/06/09 05:08:40;;;;;;;13.57;10.10;;;;;;;19.72;57.24;100415.31;153969;1101;103196;-73
2021/06/09 05:11:51;;;;;;;13.73;10.20;;;;;;;19.77;56.83;100407.41;153930;1101;103147;-74
2021/06/09 05:14:59;;;;;;;14.85;10.50;;;;;;;19.78;56.80;100398.23;153974;1101;103195;-73
2021/06/09 05:18:07;;;;;;;11.03;9.70;;;;;;;19.75;56.49;100402.20;153960;1101;103200;-73
2021/06/09 05:21:12;;;;;;;10.58;9.53;;;;;;;19.79;56.34;100400.73;153992;1095;103195;-75
2021/06/09 05:24:19;;;;;;;9.37;8.40;;;;;;;19.94;56.49;100414.05;153941;1101;103199;-74
2021/06/09 05:27:26;;;;;;;10.37;8.87;;;;;;;20.12;56.27;100401.72;153958;1101;103165;-74
2021/06/09 05:30:32;;;;;;;10.45;8.65;;;;;;;20.20;55.56;100399.59;153964;1101;103126;-73
2021/06/09 05:33:38;;;;;;;12.53;8.83;;;;;;;20.30;56.17;100409.98;153968;1101;103608;-73
2021/06/09 05:36:43;;;;;;;11.27;9.37;;;;;;;20.39;55.29;100402.47;154226;1096;103199;-73
2021/06/09 05:39:47;;;;;;;9.83;8.93;;;;;;;20.46;56.04;100408.70;154283;1093;103125;-73
2021/06/09 05:42:52;;;;;;;8.90;8.00;;;;;;;20.61;55.62;100402.20;154074;1101;103471;-74
2021/06/09 05:45:58;;;;;;;10.00;8.98;;;;;;;20.85;55.04;100401.45;153974;1101;103142;-74
2021/06/09 05:49:02;;;;;;;11.63;8.50;;;;;;;20.93;55.04;100405.79;153963;1097;103282;-74
2021/06/09 05:52:08;;;;;;;9.23;8.33;;;;;;;20.94;54.94;100407.47;154000;1101;103203;-74
2021/06/09 05:55:19;;;;;;;8.60;7.78;;;;;;;20.94;55.08;100407.47;153948;1101;103195;-73
2021/06/09 05:58:23;;;;;;;;;;;;;;;20.89;54.55;100415.41;153945;1101;103148;-75
2021/06/09 06:01:29;;;;;;;9.37;8.17;;;;;;;20.86;54.27;100410.41;153928;1097;103157;-75
2021/06/09 06:04:35;;;;;;;8.85;7.95;;;;;;;20.92;54.29;100409.53;153972;1101;103316;-75
2021/06/09 06:07:41;;;;;;;8.58;7.40;;;;;;;20.94;54.25;100404.75;153985;1101;103209;-74
2021/06/09 06:10:46;;;;;;;8.00;7.30;;;;;;;20.99;54.14;100404.91;153901;1101;103132;-75
2021/06/09 06:13:50;;;;;;;8.03;7.23;;;;;;;20.95;53.22;100407.23;153946;1097;103590;-75
2021/06/09 06:16:57;;;;;;;7.10;6.37;;;;;;;21.01;54.22;100405.52;153982;1101;103151;-72
2021/06/09 06:20:01;;;;;;;11.33;7.63;;;;;;;21.17;54.13;100407.73;153981;1097;103262;-73
2021/06/09 06:23:07;;;;;;;9.57;6.67;;;;;;;21.26;53.86;100405.56;154014;1096;103238;-72
2021/06/09 06:26:14;;;;;;;8.45;5.93;;;;;;;21.33;53.99;100403.64;153955;1096;103213;-73
2021/06/09 06:29:19;;;;;;;8.07;5.97;;;;;;;21.41;53.75;100405.25;153957;1101;103153;-72
2021/06/09 06:32:26;;;;;;;27.17;24.23;;;;;;;21.38;52.88;100411.96;153931;1096;103484;-73
2021/06/09 06:35:32;;;;;;;12.57;11.27;;;;;;;21.32;52.74;100414.71;153957;1101;103290;-73
2021/06/09 06:38:37;;;;;;;8.07;5.90;;;;;;;21.28;51.83;100427.06;153962;1097;103188;-73
2021/06/09 06:41:42;;;;;;;9.40;7.70;;;;;;;21.16;52.27;100422.33;153991;1101;103196;-72
2021/06/09 06:44:47;;;;;;;9.43;7.77;;;;;;;21.18;51.96;100414.80;153937;1101;103123;-72
2021/06/09 06:47:52;;;;;;;5.97;5.47;;;;;;;21.31;51.25;100415.78;153967;1096;103192;-72
2021/06/09 06:50:58;;;;;;;6.53;5.17;;;;;;;21.59;51.58;100417.25;153896;1097;103500;-72
2021/06/09 06:54:03;;;;;;;7.77;6.30;;;;;;;21.78;51.46;100409.98;154010;1095;103548;-73
2021/06/09 06:57:10;;;;;;;16.97;15.03;;;;;;;21.97;50.99;100408.96;153911;1101;103204;-70
2021/06/09 07:00:18;;;;;;;10.23;7.30;;;;;;;22.13;51.20;100397.52;153856;1101;103272;-72
2021/06/09 07:03:24;;;;;;;8.20;6.65;;;;;;;22.22;50.36;100406.18;153987;1101;103161;-72
2021/06/09 07:06:29;;;;;;;6.70;5.90;;;;;;;22.28;50.80;100412.64;153900;1095;103342;-71
2021/06/09 07:09:34;;;;;;;9.87;8.23;;;;;;;22.42;50.55;100410.58;154095;1097;103198;-73
2021/06/09 07:12:40;;;;;;;9.55;8.55;;;;;;;22.54;50.29;100403.34;154005;1101;103144;-73
2021/06/09 07:15:46;;;;;;;6.57;5.20;;;;;;;22.57;49.58;100408.30;153977;1101;103148;-72
2021/06/09 07:18:52;;;;;;;9.43;8.43;;;;;;;22.58;49.98;100401.83;153944;1096;103240;-73
2021/06/09 07:21:57;;;;;;;21.77;18.60;;;;;;;22.75;48.00;100421.06;153955;1095;103557;-72
2021/06/09 07:25:02;;;;;;;24.30;19.80;;;;;;;22.85;49.90;100415.08;153975;1101;103482;-73
2021/06/09 07:28:09;;;;;;;18.35;16.40;;;;;;;22.89;49.35;100416.27;153944;1101;103129;-74
2021/06/09 07:31:15;;;;;;;9.83;6.68;;;;;;;23.24;49.73;100415.58;153972;1101;103115;-72
2021/06/09 07:34:20;;;;;;;6.48;5.40;;;;;;;23.46;48.82;100400.36;153892;1101;103100;-72
2021/06/09 07:37:26;;;;;;;5.90;5.30;;;;;;;23.43;48.48;100416.34;153988;1097;103206;-72
2021/06/09 07:40:34;;;;;;;5.57;4.67;;;;;;;23.31;48.85;100408.15;154019;1101;103195;-70
2021/06/09 07:43:41;;;;;;;5.23;4.73;;;;;;;23.15;46.89;100415.07;153918;1101;103221;-72
2021/06/09 07:46:51;;;;;;;6.10;4.83;;;;;;;22.91;48.46;100412.25;153969;1101;103124;-72
2021/06/09 07:49:57;;;;;;;4.27;3.87;;;;;;;22.84;47.85;100413.41;153879;1101;103529;-72
2021/06/09 07:53:06;;;;;;;7.80;5.65;;;;;;;22.78;48.23;100414.33;153959;1094;103587;-71
2021/06/09 07:56:14;;;;;;;7.13;4.55;;;;;;;22.63;48.20;100420.16;154123;1101;103130;-72
2021/06/09 07:59:22;;;;;;;6.73;4.33;;;;;;;22.42;47.51;100422.31;154015;1096;103133;-71
2021/06/09 08:02:27;;;;;;;5.23;4.60;;;;;;;22.25;48.05;100411.20;153916;1101;103369;-72
2021/06/09 08:05:33;;;;;;;5.20;4.60;;;;;;;22.24;48.26;100414.94;154123;1101;103125;-72
2021/06/09 08:08:38;;;;;;;5.00;4.50;;;;;;;22.37;47.85;100418.61;154044;1096;103263;-72
2021/06/09 08:11:43;;;;;;;8.47;4.60;;;;;;;22.57;47.48;100421.08;153835;1096;103122;-72
2021/06/09 08:14:48;;;;;;;4.90;4.30;;;;;;;22.69;47.81;100422.81;153913;1101;103139;-71
2021/06/09 08:17:53;;;;;;;5.48;4.35;;;;;;;22.71;47.28;100417.97;153876;1102;103195;-72
2021/06/09 08:21:10;;;;;;;4.83;3.97;;;;;;;22.65;47.77;100415.32;153965;1101;103139;-72
2021/06/09 08:24:15;;;;;;;5.68;4.58;;;;;;;22.73;47.00;100418.57;153909;1095;103267;-72
2021/06/09 08:27:20;;;;;;;5.43;4.18;;;;;;;22.78;47.29;100425.21;153919;1101;103046;-72
2021/06/09 08:30:25;;;;;;;6.17;4.37;;;;;;;22.84;47.17;100418.84;153965;1101;103132;-72
2021/06/09 08:33:30;;;;;;;7.05;4.50;;;;;;;23.00;47.81;100418.21;153786;1097;103199;-72
2021/06/09 08:36:35;;;;;;;6.47;4.90;;;;;;;23.11;45.96;100419.33;154002;1095;103194;-72
2021/06/09 08:39:40;;;;;;;6.98;5.05;;;;;;;23.05;47.02;100415.64;153901;1096;103317;-72
2021/06/09 08:42:47;;;;;;;5.10;4.10;;;;;;;23.16;47.00;100410.48;153929;1101;103191;-72
2021/06/09 08:45:52;;;;;;;5.53;4.88;;;;;;;23.29;46.21;100413.00;153976;1101;103183;-72
2021/06/09 08:48:58;;;;;;;6.50;5.90;;;;;;;23.28;46.05;100416.77;153976;1101;103136;-72
2021/06/09 08:52:04;;;;;;;5.47;4.97;;;;;;;23.18;46.07;100416.52;153952;1101;103147;-72
2021/06/09 08:55:10;;;;;;;4.83;4.43;;;;;;;23.18;46.29;100413.80;153976;1101;103216;-72
2021/06/09 08:58:15;;;;;;;8.35;5.30;;;;;;;23.19;46.52;100415.44;154013;1101;103191;-73
2021/06/09 09:01:20;;;;;;;6.85;5.38;;;;;;;23.26;46.47;100419.72;153943;1097;103157;-72
2021/06/09 09:04:26;;;;;;;7.25;6.55;;;;;;;23.41;46.10;100413.84;153951;1101;103202;-72
2021/06/09 09:07:31;;;;;;;4.77;4.37;;;;;;;23.52;46.32;100406.77;153934;1095;103133;-72
2021/06/09 09:10:36;;;;;;;7.30;6.60;;;;;;;23.77;46.56;100408.42;153970;1096;103246;-70
2021/06/09 09:13:41;;;;;;;5.55;5.05;;;;;;;23.99;45.65;100414.97;154025;1095;103196;-71
2021/06/09 09:17:07;;;;;;;5.23;4.30;;;;;;;24.13;45.95;100409.27;153963;1101;103112;-72
2021/06/09 09:20:14;;;;;;;7.90;5.40;;;;;;;24.23;45.22;100414.94;154050;1097;103128;-71
2021/06/09 09:23:25;;;;;;;7.40;4.40;;;;;;;24.24;45.53;100411.16;154116;1101;103196;-73
2021/06/09 09:26:30;;;;;;;;;;;;;;;24.32;44.88;100418.14;154041;1097;103138;-72
2021/06/09 09:29:35;;;;;;;6.18;4.45;;;;;;;24.23;44.85;100415.79;153937;1101;103109;-71
2021/06/09 09:32:58;;;;;;;4.63;4.13;;;;;;;24.26;45.43;100409.84;153903;1101;103124;-71
2021/06/09 09:36:23;;;;;;;6.80;4.40;;;;;;;24.41;44.97;100401.16;153972;1101;103598;-71
2021/06/09 09:39:29;;;;;;;4.70;4.03;;;;;;;24.50;43.73;100398.89;153968;1101;103141;-71
2021/06/09 09:42:35;;;;;;;5.47;4.10;;;;;;;24.46;43.31;100409.45;153988;1101;103262;-72
2021/06/09 09:45:40;;;;;;;4.20;3.80;;;;;;;24.35;43.23;100409.48;153975;1096;103224;-71
2021/06/09 09:49:04;;;;;;;4.88;3.70;;;;;;;24.35;43.38;100406.76;153957;1101;103145;-72
2021/06/09 09:52:09;;;;;;;4.30;3.80;;;;;;;24.36;42.58;100414.67;153951;1101;103162;-71
2021/06/09 09:55:14;;;;;;;4.20;3.80;;;;;;;24.44;43.13;100408.02;154026;1095;103072;-71
2021/06/09 09:58:18;;;;;;;4.48;4.08;;;;;;;24.50;43.10;100402.44;154060;1096;103216;-71
2021/06/09 10:01:25;;;;;;;4.83;3.83;;;;;;;24.61;43.17;100406.22;154000;1101;103096;-72
2021/06/09 10:04:33;;;;;;;4.10;3.70;;;;;;;24.55;43.00;100409.92;154008;1101;103159;-71
2021/06/09 10:07:39;;;;;;;5.23;3.43;;;;;;;24.72;43.27;100398.25;153952;1095;103218;-71
2021/06/09 10:10:43;;;;;;;6.65;4.45;;;;;;;24.92;42.95;100403.25;153962;1095;103214;-72
2021/06/09 10:13:49;;;;;;;6.10;4.10;;;;;;;25.06;43.37;100399.98;153949;1101;103571;-72
2021/06/09 10:17:04;;;;;;;6.05;4.20;;;;;;;25.14;42.96;100408.86;153845;1097;103196;-71
2021/06/09 10:20:10;;;;;;;4.30;3.90;;;;;;;25.21;43.03;100410.36;153972;1095;103198;-71
2021/06/09 10:23:38;;;;;;;6.73;3.88;;;;;;;25.28;42.01;100404.75;154006;1101;103195;-71
2021/06/09 10:26:52;;;;;;;4.13;3.80;;;;;;;25.31;42.25;100400.69;153958;1096;103179;-71
2021/06/09 10:29:57;;;;;;;4.37;3.97;;;;;;;25.32;42.50;100400.45;154011;1101;103290;-72
2021/06/09 10:33:03;;;;;;;4.47;3.80;;;;;;;25.25;42.03;100405.23;154020;1097;103202;-71
2021/06/09 10:36:09;;;;;;;5.73;3.80;;;;;;;25.31;41.90;100401.55;154094;1101;103205;-71
2021/06/09 10:39:15;;;;;;;4.83;3.70;;;;;;;25.34;39.84;100401.03;154098;1096;103572;-71
2021/06/09 10:42:20;;;;;;;4.15;3.80;;;;;;;25.12;40.86;100400.91;154074;1095;103129;-71
2021/06/09 10:45:26;;;;;;;4.40;4.00;;;;;;;24.97;40.61;100395.17;154044;1101;103397;-71
2021/06/09 10:48:34;;;;;;;5.97;4.33;;;;;;;24.89;40.66;100396.39;154090;1096;103266;-71
2021/06/09 10:51:39;;;;;;;5.37;3.60;;;;;;;24.87;41.70;100401.27;153982;1097;103133;-71
2021/06/09 10:54:44;;;;;;;4.27;3.87;;;;;;;24.96;41.60;100394.34;154038;1101;103612;-71
2021/06/09 10:57:51;;;;;;;4.10;3.80;;;;;;;25.19;41.57;100387.08;154058;1094;103641;-71
2021/06/09 11:01:00;;;;;;;4.57;4.17;;;;;;;25.56;40.21;100383.88;154106;1101;103198;-71
2021/06/09 11:04:05;;;;;;;4.93;4.23;;;;;;;25.70;41.59;100379.75;154032;1101;103195;-71
2021/06/09 11:07:28;;;;;;;5.35;4.48;;;;;;;25.72;40.51;100387.70;153984;1093;103123;-71
2021/06/09 11:10:44;;;;;;;5.48;4.98;;;;;;;25.36;40.84;100392.59;154007;1101;103192;-72
2021/06/09 11:13:49;;;;;;;5.13;4.20;;;;;;;25.35;40.55;100380.84;154001;1101;103168;-71
2021/06/09 11:16:55;;;;;;;6.50;3.88;;;;;;;25.28;41.39;100382.91;153964;1094;103288;-71
2021/06/09 11:20:19;;;;;;;6.00;4.40;;;;;;;25.46;41.11;100379.09;154034;1101;103281;-72
2021/06/09 11:23:29;;;;;;;5.05;4.00;;;;;;;25.70;40.85;100374.28;153984;1095;103139;-71
2021/06/09 11:26:34;;;;;;;4.47;3.50;;;;;;;25.92;40.85;100371.61;154079;1096;103192;-71
2021/06/09 11:29:38;;;;;;;4.78;4.00;;;;;;;25.89;38.31;100368.55;154021;1101;103195;-71
2021/06/09 11:32:45;;;;;;;4.50;3.90;;;;;;;26.00;40.28;100357.52;153986;1101;103236;-71
2021/06/09 11:35:52;;;;;;;4.70;4.10;;;;;;;26.28;39.79;100357.59;154009;1101;103206;-71
2021/06/09 11:38:58;;;;;;;4.77;3.90;;;;;;;26.15;38.26;100353.32;154076;1093;103443;-71
2021/06/09 11:42:10;;;;;;;5.37;3.83;;;;;;;25.79;37.81;100358.27;154118;1093;103195;-72
2021/06/09 11:45:33;;;;;;;4.87;4.20;;;;;;;25.45;39.52;100366.52;154067;1101;103307;-71
2021/06/09 11:48:39;;;;;;;4.50;4.10;;;;;;;25.29;39.63;100351.80;153952;1093;103208;-71
2021/06/09 11:51:46;;;;;;;4.80;4.40;;;;;;;25.19;39.61;100357.05;154009;1101;103192;-71
2021/06/09 11:55:10;;;;;;;5.10;4.60;;;;;;;25.08;39.38;100356.88;153930;1093;103196;-71
2021/06/09 11:58:15;;;;;;;7.35;4.73;;;;;;;25.05;39.67;100357.36;154030;1093;103190;-71
2021/06/09 12:01:21;;;;;;;5.80;4.70;;;;;;;25.19;39.80;100352.44;153997;1101;103208;-71
2021/06/09 12:04:28;;;;;;;6.83;4.90;;;;;;;25.32;39.79;100340.36;153957;1101;103685;-71
2021/06/09 12:07:34;;;;;;;7.40;4.70;;;;;;;25.58;39.94;100340.77;154051;1101;103218;-71
2021/06/09 12:10:39;;;;;;;6.10;4.70;;;;;;;26.03;40.14;100332.39;153980;1095;103198;-71
2021/06/09 12:13:43;;;;;;;5.20;4.50;;;;;;;26.49;39.72;100334.85;153959;1101;103133;-71
2021/06/09 12:16:50;;;;;;;5.23;4.70;;;;;;;26.71;39.45;100328.53;154012;1097;103585;-71
2021/06/09 12:20:01;;;;;;;5.07;4.67;;;;;;;26.70;38.61;100335.11;153946;1101;103184;-71
2021/06/09 12:23:08;;;;;;;5.07;4.57;;;;;;;26.60;38.66;100331.18;154010;1097;103104;-71
2021/06/09 12:26:14;;;;;;;5.65;4.40;;;;;;;26.41;39.24;100316.16;153980;1096;103214;-71
2021/06/09 12:29:23;;;;;;;4.70;4.27;;;;;;;26.50;38.97;100320.07;154030;1095;103148;-71
2021/06/09 12:32:29;;;;;;;4.60;4.17;;;;;;;26.67;38.72;100313.72;154051;1101;103308;-71
2021/06/09 12:35:34;;;;;;;7.57;5.10;;;;;;;26.52;38.48;100322.55;153944;1101;103193;-71
2021/06/09 12:38:40;;;;;;;6.08;5.20;;;;;;;26.38;38.64;100322.14;154000;1101;103133;-72
2021/06/09 12:41:45;;;;;;;6.03;5.10;;;;;;;26.36;39.05;100310.63;153974;1096;103196;-71
2021/06/09 12:44:50;;;;;;;6.00;5.40;;;;;;;26.39;38.62;100302.73;154250;1095;103198;-71
2021/06/09 12:48:03;;;;;;;5.45;4.95;;;;;;;26.21;39.43;100303.91;153898;1101;103241;-71
2021/06/09 12:51:08;;;;;;;5.78;4.98;;;;;;;26.08;39.26;100296.09;153981;1101;103254;-71
2021/06/09 12:54:16;;;;;;;5.77;5.17;;;;;;;26.01;39.14;100298.19;153815;1101;103551;-71
2021/06/09 12:57:32;;;;;;;7.77;5.63;;;;;;;25.88;39.40;100301.27;154026;1101;103128;-71
2021/06/09 13:00:39;;;;;;;6.00;5.20;;;;;;;25.68;39.67;100291.72;154150;1101;103133;-71
2021/06/09 13:03:46;;;;;;;5.47;4.97;;;;;;;25.70;39.69;100289.56;154083;1101;103599;-71
2021/06/09 13:06:52;;;;;;;4.95;4.55;;;;;;;25.69;39.88;100287.08;154017;1097;103203;-71
2021/06/09 13:10:00;;;;;;;7.47;5.37;;;;;;;25.73;39.42;100274.55;153996;1101;103195;-72
2021/06/09 13:13:05;;;;;;;5.85;5.35;;;;;;;25.73;39.50;100274.55;153932;1096;103519;-70
2021/06/09 13:16:13;;;;;;;5.98;5.48;;;;;;;25.78;39.70;100277.37;153902;1101;103195;-70
2021/06/09 13:19:18;;;;;;;5.18;4.50;;;;;;;25.87;39.45;100270.38;153865;1101;103208;-70
2021/06/09 13:22:22;;;;;;;4.58;4.15;;;;;;;25.89;39.29;100278.33;153832;1095;103286;-72
2021/06/09 13:25:34;;;;;;;6.43;4.27;;;;;;;25.88;38.83;100271.20;154016;1101;103130;-72
2021/06/09 13:28:39;;;;;;;5.28;4.10;;;;;;;25.64;38.64;100274.18;154000;1095;103550;-70
2021/06/09 13:31:44;;;;;;;5.33;4.00;;;;;;;25.51;39.24;100266.34;153784;1096;103161;-72
2021/06/09 13:34:52;;;;;;;5.00;4.50;;;;;;;25.46;39.42;100259.73;154042;1096;103551;-71
2021/06/09 13:38:00;;;;;;;5.40;4.05;;;;;;;25.59;39.59;100260.44;154002;1101;103256;-71
2021/06/09 13:41:06;;;;;;;4.67;4.00;;;;;;;25.61;39.07;100258.28;153982;1101;103129;-70
2021/06/09 13:44:11;;;;;;;5.33;3.97;;;;;;;25.52;39.07;100262.52;153791;1101;103231;-70
2021/06/09 13:47:25;;;;;;;4.25;3.85;;;;;;;25.56;39.05;100264.52;154018;1101;103170;-72
2021/06/09 13:50:30;;;;;;;4.25;3.95;;;;;;;25.68;38.44;100252.64;153810;1101;103277;-71
2021/06/09 13:53:53;;;;;;;4.70;3.80;;;;;;;25.68;37.37;100250.73;153980;1095;103320;-71
2021/06/09 13:57:09;;;;;;;3.98;3.68;;;;;;;25.75;38.42;100239.59;154075;1101;103106;-71
2021/06/09 14:00:15;;;;;;;3.85;3.55;;;;;;;25.81;37.37;100244.89;153983;1096;103242;-71
2021/06/09 14:03:22;;;;;;;4.10;3.75;;;;;;;25.77;37.78;100248.36;153857;1094;103227;-71
2021/06/09 14:06:26;;;;;;;4.85;3.65;;;;;;;25.62;37.17;100249.02;153814;1096;103181;-70